createdAt,value
2022-10-17T00:01:03.683Z,101523.63
2022-10-17T00:03:31.475Z,101519.16
2022-10-17T00:05:59.510Z,101527.94
2022-10-17T00:08:26.512Z,101527.94
2022-10-17T00:11:09.551Z,101533.22
2022-10-17T00:13:36.580Z,101541.09
2022-10-17T00:16:04.445Z,101531.34
2022-10-17T00:18:32.592Z,101536.66
2022-10-17T00:20:59.684Z,101538.41
2022-10-17T00:23:28.582Z,101533.06
2022-10-17T00:26:05.299Z,101532.09
2022-10-17T00:28:32.745Z,101527.66
2022-10-17T00:31:04.043Z,101525.81
2022-10-17T00:33:33.159Z,101526.72
2022-10-17T00:36:13.560Z,101525.78
2022-10-17T00:38:43.923Z,101520.50
2022-10-17T00:41:15.124Z,101522.19
2022-10-17T00:44:02.944Z,101524.84
2022-10-17T00:46:38.219Z,101524.81
2022-10-17T00:49:11.311Z,101514.22
2022-10-17T00:51:50.760Z,101519.41
2022-10-17T00:54:24.568Z,101514.09
2022-10-17T00:56:53.424Z,101512.25
2022-10-17T00:59:23.571Z,101516.50
2022-10-17T01:02:11.589Z,101512.09
2022-10-17T01:04:43.947Z,101501.41
2022-10-17T01:07:11.378Z,101506.72
2022-10-17T01:09:41.674Z,101503.09
2022-10-17T01:12:28.802Z,101507.47
2022-10-17T01:15:30.042Z,101507.38
2022-10-17T01:18:15.215Z,101506.47
2022-10-17T01:21:29.165Z,101505.56
2022-10-17T01:24:41.091Z,101501.09
2022-10-17T01:27:43.288Z,101503.69
2022-10-17T01:30:43.878Z,101497.44
2022-10-17T01:33:18.284Z,101500.03
2022-10-17T01:35:55.434Z,101501.78
2022-10-17T01:38:32.455Z,101500.84
2022-10-17T01:41:17.342Z,101499.03
2022-10-17T01:44:04.832Z,101501.50
2022-10-17T01:46:40.243Z,101490.91
2022-10-17T01:49:14.062Z,101481.06
2022-10-17T01:51:55.111Z,101487.97
2022-10-17T01:54:38.513Z,101480.88
2022-10-17T01:57:24.623Z,101479.06
2022-10-17T01:59:56.212Z,101474.59
2022-10-17T02:02:25.880Z,101470.13
2022-10-17T02:04:56.626Z,101458.53
2022-10-17T02:07:24.966Z,101467.22
2022-10-17T02:09:53.206Z,101467.19
2022-10-17T02:12:41.767Z,101466.22
2022-10-17T02:15:51.744Z,101472.34
2022-10-17T02:18:46.748Z,101462.50
2022-10-17T02:21:19.686Z,101462.50
2022-10-17T02:23:59.532Z,101473.09
2022-10-17T02:26:47.934Z,101476.56
2022-10-17T02:29:28.390Z,101482.72
2022-10-17T02:32:06.959Z,101479.22
2022-10-17T02:34:43.675Z,101480.97
2022-10-17T02:37:18.372Z,101474.81
2022-10-17T02:39:47.604Z,101474.00
2022-10-17T02:42:16.122Z,101471.28
2022-10-17T02:44:46.188Z,101466.91
2022-10-17T02:47:42.948Z,101473.03
2022-10-17T02:50:11.671Z,101474.81
2022-10-17T02:53:01.280Z,101472.16
2022-10-17T02:55:39.900Z,101475.75
2022-10-17T02:58:16.509Z,101474.00
2022-10-17T03:00:44.207Z,101477.56
2022-10-17T03:03:29.404Z,101473.13
2022-10-17T03:06:00.571Z,101472.28
2022-10-17T03:08:27.904Z,101475.00
2022-10-17T03:10:56.469Z,101476.66
2022-10-17T03:13:24.176Z,101474.00
2022-10-17T03:15:51.394Z,101470.44
2022-10-17T03:18:18.632Z,101473.03
2022-10-17T03:20:47.818Z,101472.16
2022-10-17T03:23:14.886Z,101479.13
2022-10-17T03:25:42.153Z,101474.69
2022-10-17T03:28:11.839Z,101473.75
2022-10-17T03:30:39.366Z,101479.03
2022-10-17T03:33:07.285Z,101477.25
2022-10-17T03:35:34.283Z,101482.53
2022-10-17T03:38:02.047Z,101485.19
2022-10-17T03:40:29.919Z,101476.31
2022-10-17T03:42:57.115Z,101487.78
2022-10-17T03:45:24.319Z,101489.47
2022-10-17T03:47:52.779Z,101488.56
2022-10-17T03:50:19.881Z,101490.34
2022-10-17T03:52:49.557Z,101497.44
2022-10-17T03:55:17.386Z,101496.53
2022-10-17T03:57:45.796Z,101498.28
2022-10-17T04:00:14.851Z,101489.47
2022-10-17T04:02:42.000Z,101488.56
2022-10-17T04:05:14.668Z,101491.16
2022-10-17T04:07:41.813Z,101492.88
2022-10-17T04:10:10.896Z,101490.16
2022-10-17T04:12:38.029Z,101490.16
2022-10-17T04:15:06.736Z,101489.25
2022-10-17T04:17:37.296Z,101486.53
2022-10-17T04:20:07.771Z,101482.91
2022-10-17T04:22:34.952Z,101490.72
2022-10-17T04:25:02.450Z,101488.81
2022-10-17T04:27:41.855Z,101479.88
2022-10-17T04:30:10.058Z,101482.47
2022-10-17T04:32:38.920Z,101485.94
2022-10-17T04:35:21.974Z,101482.31
2022-10-17T04:37:57.072Z,101477.78
2022-10-17T04:40:25.436Z,101486.50
2022-10-17T04:42:53.395Z,101489.94
2022-10-17T04:45:24.486Z,101511.03
2022-10-17T04:47:57.427Z,101516.16
2022-10-17T04:50:25.127Z,101509.88
2022-10-17T04:53:14.548Z,101496.53
2022-10-17T04:55:41.593Z,101504.50
2022-10-17T04:58:09.110Z,101524.03
2022-10-17T05:00:36.267Z,101525.75
2022-10-17T05:03:19.119Z,101527.53
2022-10-17T05:05:47.584Z,101524.88
2022-10-17T05:08:14.950Z,101531.91
2022-10-17T05:10:46.204Z,101520.50
2022-10-17T05:13:14.624Z,101524.88
2022-10-17T05:15:41.806Z,101524.94
2022-10-17T05:18:09.842Z,101525.84
2022-10-17T05:20:37.546Z,101535.66
2022-10-17T05:23:06.722Z,101534.81
2022-10-17T05:25:39.223Z,101542.84
2022-10-17T05:28:06.477Z,101543.75
2022-10-17T05:30:36.857Z,101541.28
2022-10-17T05:33:06.703Z,101529.03
2022-10-17T05:35:34.314Z,101530.88
2022-10-17T05:38:02.311Z,101544.22
2022-10-17T05:40:31.820Z,101543.41
2022-10-17T05:42:59.063Z,101547.84
2022-10-17T05:45:26.409Z,101548.78
2022-10-17T05:47:53.409Z,101553.97
2022-10-17T05:50:22.015Z,101551.25
2022-10-17T05:53:05.251Z,101558.16
2022-10-17T05:55:37.626Z,101563.44
2022-10-17T05:58:05.286Z,101566.03
2022-10-17T06:00:37.922Z,101572.22
2022-10-17T06:03:30.509Z,101572.16
2022-10-17T06:06:05.171Z,101571.22
2022-10-17T06:08:32.810Z,101573.81
2022-10-17T06:11:06.089Z,101582.59
2022-10-17T06:13:39.196Z,101577.28
2022-10-17T06:16:13.586Z,101579.94
2022-10-17T06:18:41.597Z,101582.59
2022-10-17T06:21:12.606Z,101591.47
2022-10-17T06:23:45.015Z,101590.66
2022-10-17T06:26:17.714Z,101591.56
2022-10-17T06:28:45.764Z,101591.56
2022-10-17T06:31:17.917Z,101593.28
2022-10-17T06:33:46.624Z,101603.03
2022-10-17T06:36:15.595Z,101603.03
2022-10-17T06:38:45.519Z,101603.84
2022-10-17T06:41:21.872Z,101604.59
2022-10-17T06:43:53.072Z,101596.53
2022-10-17T06:46:40.226Z,101599.91
2022-10-17T06:49:10.373Z,101597.16
2022-10-17T06:51:49.058Z,101597.91
2022-10-17T06:54:19.509Z,101598.59
2022-10-17T06:57:08.419Z,101597.56
2022-10-17T06:59:51.310Z,101590.41
2022-10-17T07:02:24.216Z,101593.75
2022-10-17T07:04:52.359Z,101594.47
2022-10-17T07:07:19.392Z,101602.28
2022-10-17T07:09:46.462Z,101605.63
2022-10-17T07:12:15.766Z,101603.66
2022-10-17T07:14:47.217Z,101604.28
2022-10-17T07:17:14.441Z,101613.81
2022-10-17T07:19:43.508Z,101616.19
2022-10-17T07:22:13.151Z,101619.28
2022-10-17T07:24:43.844Z,101616.28
2022-10-17T07:27:46.128Z,101620.41
2022-10-17T07:30:15.537Z,101617.53
2022-10-17T07:32:54.486Z,101621.84
2022-10-17T07:35:21.626Z,101629.63
2022-10-17T07:37:48.728Z,101633.94
2022-10-17T07:40:18.809Z,101641.75
2022-10-17T07:42:45.868Z,101630.91
2022-10-17T07:45:13.607Z,101648.47
2022-10-17T07:47:43.256Z,101655.38
2022-10-17T07:50:13.354Z,101665.91
2022-10-17T07:52:42.671Z,101673.03
2022-10-17T07:55:10.090Z,101671.31
2022-10-17T07:57:37.075Z,101678.41
2022-10-17T08:00:06.628Z,101677.59
2022-10-17T08:02:39.607Z,101689.25
2022-10-17T08:05:07.215Z,101691.97
2022-10-17T08:07:34.232Z,101706.13
2022-10-17T08:10:01.559Z,101712.25
2022-10-17T08:12:32.380Z,101718.31
2022-10-17T08:15:01.217Z,101734.97
2022-10-17T08:17:30.191Z,101730.38
2022-10-17T08:19:57.214Z,101739.22
2022-10-17T08:22:25.260Z,101745.28
2022-10-17T08:24:53.595Z,101749.56
2022-10-17T08:27:24.911Z,101755.50
2022-10-17T08:29:53.467Z,101764.13
2022-10-17T08:32:24.932Z,101763.00
2022-10-17T08:34:56.348Z,101761.81
2022-10-17T08:37:23.699Z,101769.53
2022-10-17T08:39:50.699Z,101774.72
2022-10-17T08:42:50.299Z,101776.34
2022-10-17T08:45:42.932Z,101777.06
2022-10-17T08:48:18.619Z,101797.47
2022-10-17T08:50:59.406Z,101805.44
2022-10-17T08:53:57.975Z,101809.88
2022-10-17T08:56:48.036Z,101822.34
2022-10-17T08:59:25.729Z,101815.16
2022-10-17T09:02:27.358Z,101813.31
2022-10-17T09:05:34.795Z,101813.19
2022-10-17T09:08:31.719Z,101813.13
2022-10-17T09:11:26.296Z,101813.94
2022-10-17T09:14:43.102Z,101814.66
2022-10-17T09:17:56.928Z,101823.41
2022-10-17T09:20:30.950Z,101818.81
2022-10-17T09:23:12.543Z,101819.47
2022-10-17T09:25:52.499Z,101813.91
2022-10-17T09:28:34.012Z,101810.84
2022-10-17T09:31:13.316Z,101818.56
2022-10-17T09:33:59.970Z,101822.06
2022-10-17T09:36:39.416Z,101823.81
2022-10-17T09:39:20.463Z,101827.28
2022-10-17T09:41:52.997Z,101850.41
2022-10-17T09:44:35.463Z,101879.06
2022-10-17T09:47:22.648Z,101941.44
2022-10-17T09:49:50.890Z,101953.25
2022-10-17T09:52:34.288Z,101860.53
2022-10-17T09:55:15.931Z,101834.59
2022-10-17T09:57:56.839Z,101801.28
2022-10-17T10:00:32.680Z,101801.75
2022-10-17T10:03:24.914Z,101818.94
2022-10-17T10:06:16.670Z,101833.38
2022-10-17T10:09:03.328Z,101828.13
2022-10-17T10:11:49.238Z,101836.94
2022-10-17T10:14:36.167Z,101844.78
2022-10-17T10:17:38.314Z,101863.34
2022-10-17T10:20:32.231Z,101886.50
2022-10-17T10:23:15.140Z,101880.31
2022-10-17T10:25:56.952Z,101871.50
2022-10-17T10:28:34.478Z,101856.41
2022-10-17T10:31:10.041Z,101865.13
2022-10-17T10:33:46.981Z,101872.06
2022-10-17T10:36:16.587Z,101885.31
2022-10-17T10:38:57.122Z,101888.91
2022-10-17T10:41:27.742Z,101870.41
2022-10-17T10:43:56.350Z,101879.38
2022-10-17T10:46:29.891Z,101876.72
2022-10-17T10:49:00.999Z,101870.59
2022-10-17T10:51:49.506Z,101882.97
2022-10-17T10:54:25.142Z,101879.50
2022-10-17T10:57:00.064Z,101884.75
2022-10-17T10:59:39.751Z,101889.03
2022-10-17T11:02:21.977Z,101874.81
2022-10-17T11:05:11.647Z,101887.75
2022-10-17T11:07:58.497Z,101901.69
2022-10-17T11:10:46.724Z,101900.59
2022-10-17T11:13:28.923Z,101906.66
2022-10-17T11:16:18.339Z,101909.28
2022-10-17T11:19:16.685Z,101916.22
2022-10-17T11:22:05.370Z,101916.97
2022-10-17T11:24:57.084Z,101923.88
2022-10-17T11:27:26.084Z,101920.28
2022-10-17T11:29:58.164Z,101923.66
2022-10-17T11:32:47.530Z,101939.38
2022-10-17T11:35:25.077Z,101947.25
2022-10-17T11:38:16.528Z,101955.25
2022-10-17T11:40:50.900Z,101951.78
2022-10-17T11:43:32.176Z,101953.63
2022-10-17T11:46:15.949Z,101966.94
2022-10-17T11:49:07.327Z,101974.19
2022-10-17T11:52:10.191Z,101971.66
2022-10-17T11:54:50.948Z,101977.13
2022-10-17T11:57:50.403Z,101981.63
2022-10-17T12:00:48.871Z,101970.09
2022-10-17T12:04:13.513Z,101977.16
2022-10-17T12:07:27.860Z,101973.53
2022-10-17T12:10:29.178Z,101976.19
2022-10-17T12:12:56.543Z,101967.28
2022-10-17T12:15:23.507Z,101968.97
2022-10-17T12:18:02.933Z,101967.94
2022-10-17T12:20:36.524Z,101958.13
2022-10-17T12:23:13.252Z,101967.69
2022-10-17T12:26:05.477Z,101969.38
2022-10-17T12:28:45.578Z,101968.44
2022-10-17T12:31:19.849Z,101977.19
2022-10-17T12:33:51.335Z,101979.91
2022-10-17T12:36:28.695Z,101985.22
2022-10-17T12:39:01.688Z,101987.03
2022-10-17T12:41:39.123Z,101991.47
2022-10-17T12:44:15.713Z,101988.81
2022-10-17T12:47:29.367Z,101990.50
2022-10-17T12:49:56.877Z,101990.31
2022-10-17T12:52:31.941Z,101991.00
2022-10-17T12:55:11.662Z,101987.22
2022-10-17T12:57:59.771Z,101985.25
2022-10-17T13:00:59.466Z,101985.03
2022-10-17T13:03:42.419Z,101981.38
2022-10-17T13:06:24.685Z,101990.03
2022-10-17T13:09:24.877Z,101998.81
2022-10-17T13:11:55.179Z,102004.78
2022-10-17T13:14:24.880Z,102005.59
2022-10-17T13:16:57.417Z,102013.59
2022-10-17T13:19:30.689Z,102020.91
2022-10-17T13:22:06.716Z,102015.53
2022-10-17T13:24:39.113Z,102027.00
2022-10-17T13:27:32.465Z,102013.59
2022-10-17T13:30:03.719Z,102022.44
2022-10-17T13:32:39.742Z,102027.66
2022-10-17T13:35:17.192Z,102028.72
2022-10-17T13:37:51.572Z,102043.13
2022-10-17T13:40:49.682Z,102047.66
2022-10-17T13:43:21.663Z,102049.66
2022-10-17T13:45:54.163Z,102053.25
2022-10-17T13:48:26.748Z,102059.53
2022-10-17T13:51:02.461Z,102061.63
2022-10-17T13:53:35.826Z,102067.78
2022-10-17T13:56:29.880Z,102068.78
2022-10-17T13:59:25.535Z,102071.56
2022-10-17T14:01:55.406Z,102064.56
2022-10-17T14:04:22.449Z,102071.75
2022-10-17T14:06:52.255Z,102077.94
2022-10-17T14:09:27.663Z,102078.94
2022-10-17T14:12:11.031Z,102078.28
2022-10-17T14:15:09.825Z,102073.91
2022-10-17T14:17:39.410Z,102074.09
2022-10-17T14:23:21.853Z,102089.28
2022-10-17T14:25:44.662Z,102096.41
2022-10-17T14:28:12.569Z,102094.66
2022-10-17T14:30:57.856Z,102096.47
2022-10-17T14:33:31.105Z,102107.31
2022-10-17T14:36:01.718Z,102124.16
2022-10-17T14:38:30.421Z,102122.47
2022-10-17T14:44:22.896Z,102139.63
2022-10-17T14:47:01.578Z,102137.91
2022-10-17T14:49:40.754Z,102144.13
2022-10-17T14:52:18.391Z,102145.00
2022-10-17T14:54:50.446Z,102150.28
2022-10-17T14:57:32.720Z,102153.75
2022-10-17T14:59:59.967Z,102159.03
2022-10-17T15:02:30.198Z,102145.63
2022-10-17T15:04:57.821Z,102148.25
2022-10-17T15:07:24.974Z,102146.44
2022-10-17T15:09:54.220Z,102142.78
2022-10-17T15:12:25.376Z,102133.94
2022-10-17T15:14:54.239Z,102140.13
2022-10-17T15:17:28.588Z,102134.94
2022-10-17T15:19:57.323Z,102136.72
2022-10-17T15:22:24.692Z,102135.91
2022-10-17T15:24:51.999Z,102136.03
2022-10-17T15:27:26.296Z,102135.16
2022-10-17T15:29:53.303Z,102136.13
2022-10-17T15:32:20.379Z,102129.00
2022-10-17T15:34:47.494Z,102130.88
2022-10-17T15:37:24.036Z,102130.88
2022-10-17T15:39:55.161Z,102135.38
2022-10-17T15:42:27.976Z,102148.56
2022-10-17T15:44:58.365Z,102153.03
2022-10-17T15:47:34.917Z,102153.03
2022-10-17T15:50:06.920Z,102168.09
2022-10-17T15:52:35.958Z,102172.53
2022-10-17T15:55:24.179Z,102184.16
2022-10-17T15:57:52.607Z,102193.00
2022-10-17T16:00:24.390Z,102196.66
2022-10-17T16:02:52.195Z,102197.56
2022-10-17T16:05:25.800Z,102194.09
2022-10-17T16:07:55.022Z,102203.06
2022-10-17T16:10:24.051Z,102196.84
2022-10-17T16:12:52.415Z,102198.72
2022-10-17T16:15:28.492Z,102197.97
2022-10-17T16:18:01.656Z,102197.22
2022-10-17T16:20:32.547Z,102205.38
2022-10-17T16:23:03.447Z,102210.78
2022-10-17T16:25:32.823Z,102215.38
2022-10-17T16:28:01.191Z,102206.63
2022-10-17T16:30:32.005Z,102220.84
2022-10-17T16:33:00.217Z,102217.41
2022-10-17T16:35:34.740Z,102223.66
2022-10-17T16:38:07.851Z,102228.16
2022-10-17T16:40:40.486Z,102228.22
2022-10-17T16:43:12.954Z,102229.25
2022-10-17T16:45:46.093Z,102238.16
2022-10-17T16:48:13.853Z,102243.59
2022-10-17T16:50:42.504Z,102240.16
2022-10-17T16:53:10.383Z,102243.75
2022-10-17T16:55:38.583Z,102248.25
2022-10-17T16:58:06.374Z,102243.00
2022-10-17T17:00:34.477Z,102251.97
2022-10-17T17:03:02.233Z,102254.69
2022-10-17T17:05:31.358Z,102256.53
2022-10-17T17:08:00.313Z,102256.69
2022-10-17T17:10:28.056Z,102262.94
2022-10-17T17:12:55.904Z,102259.50
2022-10-17T17:15:23.539Z,102260.44
2022-10-17T17:17:55.232Z,102263.16
2022-10-17T17:20:24.239Z,102256.97
2022-10-17T17:23:17.537Z,102267.63
2022-10-17T17:25:45.525Z,102269.47
2022-10-17T17:28:14.431Z,102280.16
2022-10-17T17:30:41.866Z,102271.41
2022-10-17T17:33:10.286Z,102265.28
2022-10-17T17:35:40.102Z,102275.97
2022-10-17T17:38:07.980Z,102275.09
2022-10-17T17:40:35.872Z,102267.16
2022-10-17T17:43:03.950Z,102272.53
2022-10-17T17:45:31.905Z,102277.03
2022-10-17T17:48:03.156Z,102282.41
2022-10-17T17:50:31.006Z,102293.97
2022-10-17T17:52:59.150Z,102294.91
2022-10-17T17:55:27.085Z,102294.97
2022-10-17T17:57:56.975Z,102291.47
2022-10-17T18:00:24.973Z,102293.28
2022-10-17T18:02:53.285Z,102297.75
2022-10-17T18:05:26.785Z,102295.94
2022-10-17T18:07:54.560Z,102300.47
2022-10-17T18:10:22.662Z,102306.69
2022-10-17T18:12:50.451Z,102304.06
2022-10-17T18:15:18.244Z,102313.84
2022-10-17T18:17:45.532Z,102310.41
2022-10-17T18:20:12.556Z,102307.78
2022-10-17T18:22:39.680Z,102301.69
2022-10-17T18:25:07.221Z,102315.00
2022-10-17T18:27:34.244Z,102323.94
2022-10-17T18:30:01.296Z,102315.97
2022-10-17T18:32:31.900Z,102325.72
2022-10-17T18:34:59.182Z,102325.81
2022-10-17T18:37:26.218Z,102327.59
2022-10-17T18:39:55.843Z,102336.44
2022-10-17T18:42:23.400Z,102324.94
2022-10-17T18:44:50.586Z,102332.00
2022-10-17T18:47:17.656Z,102334.59
2022-10-17T18:49:44.767Z,102332.84
2022-10-17T18:52:11.899Z,102334.59
2022-10-17T18:54:39.356Z,102336.44
2022-10-17T18:57:06.905Z,102341.78
2022-10-17T18:59:34.267Z,102338.28
2022-10-17T19:02:01.386Z,102345.34
2022-10-17T19:04:28.653Z,102347.22
2022-10-17T19:06:55.724Z,102345.47
2022-10-17T19:09:23.821Z,102341.06
2022-10-17T19:11:50.974Z,102340.16
2022-10-17T19:14:18.944Z,102338.44
2022-10-17T19:16:50.841Z,102342.88
2022-10-17T19:19:23.323Z,102345.59
2022-10-17T19:21:51.739Z,102346.50
2022-10-17T19:24:23.329Z,102341.22
2022-10-17T19:26:53.525Z,102340.34
2022-10-17T19:29:23.220Z,102350.16
2022-10-17T19:31:50.660Z,102353.69
2022-10-17T19:34:19.307Z,102351.94
2022-10-17T19:36:46.670Z,102348.41
2022-10-17T19:39:18.764Z,102343.09
2022-10-17T19:41:48.247Z,102348.41
2022-10-17T19:44:16.833Z,102353.72
2022-10-17T19:46:46.621Z,102353.72
2022-10-17T19:49:14.455Z,102349.28
2022-10-17T19:51:41.784Z,102351.94
2022-10-17T19:54:09.609Z,102341.34
2022-10-17T19:56:37.924Z,102351.94
2022-10-17T19:59:06.713Z,102351.06
2022-10-17T20:01:38.969Z,102348.47
2022-10-17T20:04:08.589Z,102351.94
2022-10-17T20:06:35.608Z,102367.00
2022-10-17T20:09:04.360Z,102360.78
2022-10-17T20:11:31.931Z,102355.41
2022-10-17T20:14:01.729Z,102355.41
2022-10-17T20:16:34.494Z,102362.53
2022-10-17T20:19:09.404Z,102359.00
2022-10-17T20:21:37.334Z,102359.00
2022-10-17T20:24:12.023Z,102364.34
2022-10-17T20:26:39.994Z,102369.72
2022-10-17T20:29:14.480Z,102366.16
2022-10-17T20:31:44.163Z,102367.06
2022-10-17T20:34:15.196Z,102376.81
2022-10-17T20:36:43.531Z,102378.59
2022-10-17T20:39:13.770Z,102383.06
2022-10-17T20:41:41.167Z,102388.38
2022-10-17T20:44:09.128Z,102390.09
2022-10-17T20:46:45.280Z,102382.13
2022-10-17T20:49:24.620Z,102390.97
2022-10-17T20:51:51.837Z,102393.59
2022-10-17T20:54:18.820Z,102398.00
2022-10-17T20:56:45.822Z,102404.19
2022-10-17T20:59:16.338Z,102404.16
2022-10-17T21:01:45.385Z,102406.75
2022-10-17T21:04:43.987Z,102405.84
2022-10-17T21:07:00.792Z,102412.97
2022-10-17T21:09:29.002Z,102409.41
2022-10-17T21:11:56.893Z,102407.66
2022-10-17T21:14:25.187Z,102411.22
2022-10-17T21:16:52.371Z,102414.78
2022-10-17T21:19:21.709Z,102417.50
2022-10-17T21:21:48.975Z,102425.47
2022-10-17T21:24:19.148Z,102427.28
2022-10-17T21:26:50.220Z,102416.72
2022-10-17T21:29:17.190Z,102420.25
2022-10-17T21:31:44.958Z,102418.53
2022-10-17T21:34:18.878Z,102418.59
2022-10-17T21:36:46.385Z,102426.63
2022-10-17T21:39:15.307Z,102426.69
2022-10-17T21:41:44.123Z,102425.84
2022-10-17T21:44:21.028Z,102437.34
2022-10-17T21:46:49.084Z,102435.69
2022-10-17T21:49:20.245Z,102434.88
2022-10-17T21:51:50.252Z,102431.44
2022-10-17T21:54:19.688Z,102428.91
2022-10-17T21:56:47.709Z,102432.53
2022-10-17T21:59:15.308Z,102430.81
2022-10-17T22:01:46.279Z,102437.94
2022-10-17T22:04:19.063Z,102437.09
2022-10-17T22:06:51.147Z,102436.31
2022-10-17T22:09:24.799Z,102435.47
2022-10-17T22:11:56.895Z,102436.50
2022-10-17T22:14:26.699Z,102433.09
2022-10-17T22:16:55.147Z,102445.47
2022-10-17T22:19:26.098Z,102439.31
2022-10-17T22:21:54.177Z,102443.72
2022-10-17T22:24:23.489Z,102443.72
2022-10-17T22:26:51.564Z,102445.59
2022-10-17T22:29:18.791Z,102448.31
2022-10-17T22:31:47.952Z,102448.38
2022-10-17T22:34:17.651Z,102455.50
2022-10-17T22:36:45.072Z,102456.47
2022-10-17T22:39:12.149Z,102467.13
2022-10-17T22:41:39.435Z,102462.78
2022-10-17T22:44:06.837Z,102466.34
2022-10-17T22:46:35.316Z,102467.25
2022-10-17T22:49:02.733Z,102457.53
2022-10-17T22:51:29.837Z,102471.66
2022-10-17T22:53:58.892Z,102474.25
2022-10-17T22:56:25.907Z,102472.44
2022-10-17T22:58:53.458Z,102475.94
2022-10-17T23:01:24.074Z,102477.69
2022-10-17T23:03:53.130Z,102475.91
2022-10-17T23:06:21.055Z,102475.94
2022-10-17T23:08:48.603Z,102484.81
2022-10-17T23:11:15.712Z,102477.75
2022-10-17T23:13:42.979Z,102470.75
2022-10-17T23:16:10.525Z,102470.78
2022-10-17T23:18:39.088Z,102471.75
2022-10-17T23:21:07.164Z,102479.75
2022-10-17T23:23:34.812Z,102480.75
2022-10-17T23:26:11.990Z,102471.97
2022-10-17T23:28:40.669Z,102477.44
2022-10-17T23:31:18.126Z,102477.53
2022-10-17T23:33:47.869Z,102476.72
2022-10-17T23:36:18.277Z,102474.97
2022-10-17T23:38:47.736Z,102471.47
2022-10-17T23:41:15.591Z,102473.22
2022-10-17T23:43:44.067Z,102466.09
2022-10-17T23:46:11.333Z,102470.47
2022-10-17T23:48:39.514Z,102461.59
2022-10-17T23:51:07.915Z,102461.56
2022-10-17T23:53:36.949Z,102466.91
2022-10-17T23:56:05.147Z,102463.34
2022-10-17T23:58:32.676Z,102471.31
